Tiempo atmosférico en la estación meteorológica de Castellote, Teruel (755 m.)



Fecha
DESCASC
Temp. máxima en grados centígrados (hora)
DESCASC
Temp. mínima en grados centígrados (hora)
DESCASC
Temp. media en grados centígrados
DESCASC
Racha de viento máxima en m/sg (hora)
DESCASC
Velocidad máxima media en intervalos de 10 minutos(hora)
DESCASC
Precipitaciones diarias en mm
DESCASC
Precipitaciones de 00:00 a 06:00 en mm
DESCASC
Precipitaciones de 06:00 a 12:00 en mm
DESCASC
Precipitaciones de 12:00 a 18:00 en mm
DESCASC
Precipitaciones de 18:00 a 24:00 en mm
DESCASC
16-06-2019 27.4 (15:40) 12 (07:20) 19.7 10.28 (15:30) 6.11 (15:30) 0 0 0 0 0
15-06-2019 25.5 (17:10) 11.8 (06:50) 18.7 13.89 (03:30) 9.44 (03:20) 0 0 0 0 0
14-06-2019 27.4 (19:40) 14.1 (06:20) 20.8 11.94 (20:20) 8.33 (20:30) 0 0 0 0 0
13-06-2019 24.1 (15:40) 12.5 (00:00) 18.3 10.83 (14:40) 6.39 (14:40) 0 0 0 0 0
12-06-2019 21.3 (15:40) 5.8 (00:00) 13.5 11.39 (17:50) 7.22 (17:50) 0 0 0 0 0
11-06-2019 16.3 (19:30) 9.6 (00:00) 12.9 12.78 (20:50) 6.39 (20:40) 0.2 0 0 0.2 0
10-06-2019 21.9 (15:10) 11.3 (00:00) 16.6 15.83 (00:50) 8.89 (00:50) 0 0 0 0 0
09-06-2019 27.4 (17:40) 16.1 (00:00) 21.8 13.89 (23:40) 7.78 (23:40) 0 0 0 0 0
08-06-2019 22.4 (15:00) 9.9 (00:00) 16.1 13.89 (16:30) 7.78 (14:10) 0 0 0 0 0
07-06-2019 23.3 (17:40) 12.6 (00:00) 17.9 13.06 (19:50) 8.06 (18:00) 0 0 0 0 0
06-06-2019 21.9 (17:20) 8.1 (00:00) 15 16.39 (16:30) 7.5 (20:30) 0 0 0 0 0
05-06-2019 23.7 (00:10) 12.7 (00:00) 18.2 23.33 (14:00) 10.56 (13:50) 0 0 0 0 0
04-06-2019 31.6 (14:20) 18.8 (00:00) 25.2 12.78 (18:30) 6.94 (18:30) 0 0 0 0 0
03-06-2019 29.8 (14:30) 17.5 (00:00) 23.6 11.11 (16:00) 7.5 (16:00) 0 0 0 0 0
02-06-2019 31.8 (16:20) 15.6 (00:00) 23.7 10.28 (15:50) 5.28 (18:20) 0 0 0 0 0
01-06-2019 30.1 (16:40) 14.2 (00:00) 22.2 11.94 (16:50) 6.11 (18:30) 0 0 0 0 0
31-05-2019 28 (15:40) 12 (00:00) 20 9.44 (16:00) 5.56 (19:00) 0 0 0 0 0
30-05-2019 25.2 (16:10) 10.5 (00:00) 17.9 12.5 (17:30) 6.67 (18:30) 0 0 0 0 0
29-05-2019 19.4 (18:30) 8.4 (00:00) 13.9 17.78 (11:50) 8.33 (10:20) 0 0 0 0 0
28-05-2019 18.2 (17:10) 8.9 (00:00) 13.6 22.22 (22:40) 12.5 (22:40) 0 0 0 0 0
27-05-2019 23 (17:40) 9.4 (00:00) 16.2 15 (13:30) 7.78 (23:20) 0 0 0 0 0
26-05-2019 19.2 (18:20) 8.9 (00:00) 14.1 14.44 (15:00) 7.78 (07:40) 0 0 0 0 0
25-05-2019 19.2 (18:00) 9.9 (00:00) 14.6 12.78 (19:40) 6.94 (21:00) 1.6 1.6 0 0 0
24-05-2019 15.8 (00:40) 10.7 (00:00) 13.3 16.67 (19:00) 9.72 (19:00) 11 0.6 6.8 1.6 2
23-05-2019 25.3 (15:20) 12.8 (00:00) 19 19.17 (23:30) 10 (23:30) 1.2 0 0 0 1.2
22-05-2019 24.2 (16:30) 8.2 (00:00) 16.2 10.83 (17:50) 6.67 (18:30) 0 0 0 0 0
21-05-2019 21.6 (16:20) 8.2 (07:10) 14.9 10.56 (16:30) 5.28 (17:00) 0 0 0 0 0

Gráficas

Temp. máximas Temp. mínimas Temp. medias Precipitaciones Rachas de viento máximas Velocidades máximas media en intervalos de 10 minutos

Datos horarios

Fecha y hora oficial Temperatura (ºC) Velocidad del viento (km/h) Dirección del viento Racha (km/h) Dirección de racha Precipitación (mm) Presión (hPa) Tendencia (hPa) Humedad (%)
2019-06-19 23:00:00 22.4 4 Sur 14 Este 0 -- -- 40
2019-06-19 22:00:00 23.6 10 Este 21 Este 0 -- -- 37
2019-06-19 21:00:00 25.1 10 Sudeste 22 Sur 0 -- -- 35
2019-06-19 20:00:00 26.2 8 Este 32 Este 0 -- -- 33
2019-06-19 19:00:00 27.8 20 Este 40 Este 0 -- -- 31
2019-06-19 18:00:00 29.3 7 Este 32 Este 0 -- -- 30
2019-06-19 17:00:00 29 14 Este 38 Este 0 -- -- 30
2019-06-19 16:00:00 29 5 Norte 28 Este -- -- -- 29
2019-06-19 15:00:00 29.3 13 Este -- -- -- -- -- 29
2019-06-19 14:00:00 28.6 9 Noroeste 41 Este 0 -- -- 29
2019-06-19 13:00:00 28.3 12 Este 28 Este 0 -- -- 31
2019-06-19 12:00:00 27 12 Noroeste 25 Sudoeste 0 -- -- 33
2019-06-19 11:00:00 25.3 9 Oeste 24 Sur 0 -- -- 35
2019-06-19 10:00:00 24.1 7 Norte 21 Nordeste 0 -- -- 37
2019-06-19 09:00:00 23 5 Sudoeste 20 Sudoeste 0 -- -- 35
2019-06-19 08:00:00 20.7 0 Calma -- -- -- -- -- 35
2019-06-19 07:00:00 19.6 4 Este -- -- -- -- -- 35
2019-06-19 06:00:00 -- -- -- -- -- -- -- -- --
2019-06-19 05:00:00 -- -- -- -- -- -- -- -- --
2019-06-19 04:00:00 -- -- -- -- -- -- -- -- --
2019-06-19 03:00:00 -- -- -- -- -- -- -- -- --
2019-06-19 02:00:00 -- -- -- -- -- -- -- -- --
2019-06-19 01:00:00 -- -- -- -- -- -- -- -- --
2019-06-19 00:00:00 -- -- -- -- -- -- -- -- --
2019-06-18 23:00:00 -- -- -- -- -- -- -- -- --
2019-06-18 22:00:00 -- -- -- -- -- -- -- -- --
2019-06-18 21:00:00 -- -- -- -- -- -- -- -- --
2019-06-18 20:00:00 -- -- -- -- -- -- -- -- --
2019-06-18 19:00:00 27.8 21 Este 44 Este 0 -- -- 29
2019-06-18 18:00:00 29.2 18 Sudeste 45 Sudeste 0 -- -- 29
2019-06-18 17:00:00 30.5 22 Este 44 Sudeste 0 -- -- 28
2019-06-18 16:00:00 31.1 26 Este 49 Sudeste 0 -- -- 21
2019-06-18 15:00:00 31.7 29 Este 48 Este 0 -- -- 21
2019-06-18 14:00:00 31.3 22 Este 42 Este 0 -- -- 21
2019-06-18 13:00:00 31.2 23 Este 39 Este 0 -- -- 21
2019-06-18 12:00:00 30.4 11 Sudeste 24 Sudeste 0 -- -- 22
2019-06-18 11:00:00 27.8 6 Sur 16 Sudoeste 0 -- -- 26
2019-06-18 10:00:00 25.4 4 Sur 7 Sudoeste 0 -- -- 29
2019-06-18 09:00:00 22.7 4 Este 6 Este 0 -- -- 34
2019-06-18 08:00:00 20.1 0 Calma 8 Sur 0 -- -- 35
2019-06-18 07:00:00 19.1 3 Sur 13 Sur 0 -- -- 36
2019-06-18 06:00:00 19 7 Sur 14 Sur 0 -- -- 35
2019-06-18 05:00:00 19.1 9 Sur 13 Sur 0 -- -- 35
2019-06-18 04:00:00 19 10 Sudoeste 13 Sudoeste 0 -- -- 36
2019-06-18 03:00:00 19.5 7 Sur 17 Sur 0 -- -- 36
2019-06-18 02:00:00 20.1 10 Sur 22 Sur 0 -- -- 35
2019-06-18 01:00:00 20.9 13 Sur 25 Sudoeste 0 -- -- 34
2019-06-18 00:00:00 21 15 Sudoeste 23 Sudoeste 0 -- -- 37
2019-06-17 23:00:00 21.3 10 Sur 23 Sur 0 -- -- 38
2019-06-17 22:00:00 22.1 7 Sudeste 20 Sur 0 -- -- 38
2019-06-17 21:00:00 23.5 11 Este 31 Sudeste 0 -- -- 40
2019-06-17 20:00:00 25.7 16 Este 32 Este 0 -- -- 38
2019-06-17 19:00:00 27.1 16 Sudeste 43 Este 0 -- -- 37
2019-06-17 18:00:00 28.3 15 Este 41 Este 0 -- -- 35
2019-06-17 17:00:00 28.1 21 Este 36 Este 0 -- -- 34
2019-06-17 16:00:00 29.9 15 Este 35 Este 0 -- -- 26
2019-06-17 15:00:00 30.2 5 Sur 33 Este 0 -- -- 25
2019-06-17 14:00:00 29.4 8 Este 31 Este 0 -- -- 26
2019-06-17 13:00:00 28.6 13 Este 29 Este 0 -- -- 29
2019-06-17 12:00:00 26.9 10 Sudeste 19 Este 0 -- -- 33
2019-06-17 11:00:00 25.5 5 Nordeste 15 Este 0 -- -- 36
2019-06-17 10:00:00 23.4 4 Nordeste 10 Este 0 -- -- 39
2019-06-17 09:00:00 20.2 0 Calma 8 Este 0 -- -- 49
2019-06-17 08:00:00 17.9 6 Este 9 Este 0 -- -- 54
2019-06-17 07:00:00 16 5 Este 11 Nordeste 0 -- -- 59
2019-06-17 06:00:00 16 9 Este 10 Este 0 -- -- 62
2019-06-17 05:00:00 16.9 5 Este 6 Este 0 -- -- 61
2019-06-17 04:00:00 17.4 3 Oeste 4 Oeste 0 -- -- 62
2019-06-17 03:00:00 18 2 Oeste 5 Oeste 0 -- -- 60
2019-06-17 02:00:00 18.3 4 Oeste 7 Oeste 0 -- -- 60
2019-06-17 01:00:00 18.3 0 Calma 5 Sudoeste 0 -- -- 62
2019-06-17 00:00:00 19 2 Sur 7 Sur 0 -- -- 59
2019-06-16 23:00:00 19.7 3 Sur 9 Este 0 -- -- 56
2019-06-16 22:00:00 20.2 3 Sudeste 13 Este 0 -- -- 54
2019-06-16 21:00:00 21.7 9 Este 28 Este 0 -- -- 49
2019-06-16 20:00:00 24.2 12 Sudeste 24 Sur 0 -- -- 42
2019-06-16 19:00:00 25.1 10 Sudeste 22 Sur 0 -- -- 40
2019-06-16 18:00:00 25.8 11 Sudeste 26 Sudeste 0 -- -- 38
2019-06-16 17:00:00 27 10 Sudeste 30 Sur 0 -- -- 35
2019-06-16 16:00:00 26.9 19 Este 37 Este 0 -- -- 33
2019-06-16 15:00:00 27 16 Este 33 Nordeste 0 -- -- 32
2019-06-16 14:00:00 26 15 Este 35 Este 0 -- -- 33
2019-06-16 13:00:00 24.4 11 Nordeste 29 Nordeste 0 -- -- 35
2019-06-16 12:00:00 23 10 Nordeste 18 Norte 0 -- -- 36
2019-06-16 11:00:00 20.5 8 Norte 17 Nordeste 0 -- -- 40
2019-06-16 10:00:00 18.4 5 Norte 10 Norte 0 -- -- 45
2019-06-16 09:00:00 15.9 4 Este 7 Este 0 -- -- 51
2019-06-16 08:00:00 13.4 4 Nordeste 5 Este 0 -- -- 56
2019-06-16 07:00:00 12.2 3 Este 5 Este 0 -- -- 60
2019-06-16 06:00:00 12.7 0 Calma 5 Este 0 -- -- 57
2019-06-16 05:00:00 13.5 3 Este 7 Este 0 -- -- 55
2019-06-16 04:00:00 14.5 4 Este 8 Nordeste 0 -- -- 51
2019-06-16 03:00:00 15.9 3 Noroeste 5 Oeste 0 -- -- 48
2019-06-16 02:00:00 16.4 3 Este 12 Este 0 -- -- 46
2019-06-16 01:00:00 17.6 4 Oeste 11 Oeste 0 -- -- 43
2019-06-16 00:00:00 18.7 7 Oeste 23 Nordeste 0 -- -- 40
2019-06-15 23:00:00 19.7 4 Oeste 14 Oeste 0 -- -- 38
2019-06-15 22:00:00 20.5 7 Sudoeste 20 Nordeste 0 -- -- 35
2019-06-15 21:00:00 21.7 7 Este 18 Sur 0 -- -- 33
2019-06-15 20:00:00 22.8 13 Este 28 Este 0 -- -- 31
2019-06-15 19:00:00 23.5 12 Este 34 Este 0 -- -- 29
2019-06-15 18:00:00 24.4 14 Este 39 Este 0 -- -- 29
2019-06-15 17:00:00 25.3 9 Sudeste 31 Nordeste 0 -- -- 28
2019-06-15 16:00:00 24.5 21 Este 45 Este 0 -- -- 29
2019-06-15 15:00:00 24 19 Este 34 Este 0 -- -- 31
2019-06-15 14:00:00 23 13 Nordeste 37 Este 0 -- -- 32
2019-06-15 13:00:00 22.4 8 Este 21 Este 0 -- -- 30
2019-06-15 12:00:00 21 7 Este 26 Este 0 -- -- 38
2019-06-15 11:00:00 19.2 15 Este 28 Este 0 -- -- 44
2019-06-15 10:00:00 17.3 7 Este 18 Este 0 -- -- 51
2019-06-15 09:00:00 15 2 Sudeste 8 Este 0 -- -- 60
2019-06-15 08:00:00 12.7 2 Sur 6 Sudoeste 0 -- -- 69
2019-06-15 07:00:00 11.8 3 Norte 11 Nordeste 0 -- -- 73
2019-06-15 06:00:00 12.7 5 Norte 24 Norte 0 -- -- 65
2019-06-15 05:00:00 16.8 4 Sudeste 37 Oeste 0 -- -- 35
2019-06-15 04:00:00 18.1 26 Oeste 50 Oeste 0 -- -- 31
2019-06-15 03:00:00 18.7 18 Oeste 38 Oeste 0 -- -- 30
2019-06-15 02:00:00 19.3 4 Este 9 Oeste 0 -- -- 29
2019-06-15 01:00:00 20.3 3 Oeste 16 Sudoeste 0 -- -- 27
2019-06-15 00:00:00 21.9 15 Sudoeste 28 Sudoeste 0 -- -- 24
2019-06-14 23:00:00 23.3 19 Sudoeste 41 Sudoeste 0 -- -- 24
2019-06-14 22:00:00 24.5 29 Sudoeste 39 Sudoeste 0 -- -- 22
2019-06-14 21:00:00 25.5 27 Sudoeste 43 Sudoeste 0 -- -- 24
2019-06-14 20:00:00 27 23 Sudoeste 35 Sudoeste 0 -- -- 22
2019-06-14 19:00:00 26.1 17 Este 28 Este 0 -- -- 41
2019-06-14 18:00:00 26.7 5 Sur 19 Sudoeste 0 -- -- 38
2019-06-14 17:00:00 26.6 7 Este 22 Este 0 -- -- 40
2019-06-14 16:00:00 25.3 8 Este 22 Este 0 -- -- 40
2019-06-14 15:00:00 25.2 7 Sudeste 19 Este 0 -- -- 40
2019-06-14 14:00:00 23 12 Este 22 Este 0 -- -- 42
2019-06-14 13:00:00 20.3 10 Este 17 Este 0 -- -- 50
2019-06-14 12:00:00 22.4 10 Este 19 Este 0 -- -- 48
2019-06-14 11:00:00 21.2 4 Oeste 15 Oeste 0 -- -- 51
2019-06-14 10:00:00 18.8 4 Sur 11 Nordeste 0 -- -- 57
2019-06-14 09:00:00 16.5 5 Sudeste 10 Nordeste 0 -- -- 60
2019-06-14 08:00:00 15.1 2 Nordeste 11 Oeste 0 -- -- 63
2019-06-14 07:00:00 14.3 3 Nordeste 18 Sudoeste 0 -- -- 67
2019-06-14 06:00:00 14.2 4 Noroeste 30 Nordeste 0 -- -- 68
2019-06-14 05:00:00 14.3 10 Oeste 20 Nordeste 0 -- -- 71
2019-06-14 04:00:00 14.7 4 Nordeste 10 Norte 0 -- -- 71
2019-06-14 03:00:00 14.7 0 Calma 7 Sudeste 0 -- -- 73
2019-06-14 02:00:00 15.1 3 Sur 10 Sudeste 0 -- -- 73
2019-06-14 01:00:00 15.4 8 Sudoeste 14 Sur 0 -- -- 73
2019-06-14 00:00:00 16.3 8 Sur 19 Sudoeste 0 -- -- 71
2019-06-13 23:00:00 16.4 8 Sur 21 Sur 0 -- -- 72
2019-06-13 22:00:00 17.1 8 Sudeste 17 Este 0 -- -- 70
2019-06-13 21:00:00 18.4 10 Este 21 Sudeste 0 -- -- 65
2019-06-13 20:00:00 19.7 13 Sudeste 30 Este 0 -- -- 61
2019-06-13 19:00:00 21.7 15 Sudeste 31 Sudeste 0 -- -- 54
2019-06-13 18:00:00 22.2 12 Sudeste 27 Sudeste 0 -- -- 52
2019-06-13 17:00:00 20.7 18 Sudeste 32 Sudeste 0 -- -- 56
2019-06-13 16:00:00 23.1 16 Sur 36 Este 0 -- -- 47
2019-06-13 15:00:00 23.1 17 Este 39 Este 0 -- -- 41
2019-06-13 14:00:00 23.6 13 Sudeste 31 Sudeste 0 -- -- 39
2019-06-13 13:00:00 22 17 Sudeste 36 Este 0 -- -- 45
2019-06-13 12:00:00 21 19 Este 33 Este 0 -- -- 49
2019-06-13 11:00:00 19.4 14 Sudeste 31 Este 0 -- -- 55
2019-06-13 10:00:00 18.7 10 Sudeste 25 Sudeste 0 -- -- 57
2019-06-13 09:00:00 17.2 11 Sur 26 Sur 0 -- -- 61
2019-06-13 08:00:00 14.8 10 Sur 23 Sur 0 -- -- 67
2019-06-13 07:00:00 13.9 6 Sudeste 23 Sur 0 -- -- 66
2019-06-13 06:00:00 13 11 Sur 20 Sur 0 -- -- 69
2019-06-13 05:00:00 12.6 8 Sur 18 Sur 0 -- -- 67
2019-06-13 04:00:00 12.5 8 Sudeste 21 Sur 0 -- -- 63
2019-06-13 03:00:00 12.6 12 Sur 21 Sur 0 -- -- 51
2019-06-13 02:00:00 12.7 10 Sudoeste 22 Sur 0 -- -- 40
2019-06-13 01:00:00 13.3 9 Sur 25 Sudeste 0 -- -- 39
2019-06-13 00:00:00 13.5 12 Sudeste 31 Sudeste 0 -- -- 42
2019-06-12 23:00:00 13.7 13 Sur 30 Sudeste 0 -- -- 47
2019-06-12 22:00:00 14.4 11 Sudeste 33 Este 0 -- -- 50
2019-06-12 21:00:00 15.5 14 Este 37 Sudeste 0 -- -- 52
2019-06-12 20:00:00 16.8 18 Este 35 Este 0 -- -- 52
2019-06-12 19:00:00 18.7 13 Este 37 Sudeste 0 -- -- 47
2019-06-12 18:00:00 19.1 23 Nordeste 41 Nordeste 0 -- -- 45
2019-06-12 17:00:00 21.3 11 Sudeste 37 Este 0 -- -- 34
2019-06-12 16:00:00 20.8 12 Este 34 Este 0 -- -- 29
2019-06-12 15:00:00 20.7 13 Este 35 Nordeste 0 -- -- 30
2019-06-12 14:00:00 19.9 12 Este 28 Este 0 -- -- 32
2019-06-12 13:00:00 17.9 8 Este 25 Este 0 -- -- 37
2019-06-12 12:00:00 16.5 6 Este 15 Este 0 -- -- 42
2019-06-12 11:00:00 14.7 8 Este 18 Este 0 -- -- 45
2019-06-12 10:00:00 12.9 3 Sudeste 9 Este 0 -- -- 50
2019-06-12 09:00:00 9.9 4 Sudeste 9 Este 0 -- -- 62
2019-06-12 08:00:00 7.2 3 Nordeste 7 Este 0 -- -- 73
2019-06-12 07:00:00 6 5 Este 7 Este 0 -- -- 77
2019-06-12 06:00:00 6.7 3 Sudeste 17 Oeste 0 -- -- 74
2019-06-12 05:00:00 8 8 Oeste 17 Noroeste 0 -- -- 69
2019-06-12 04:00:00 8.3 8 Oeste 14 Noroeste 0 -- -- 68
2019-06-12 03:00:00 8.5 3 Oeste 7 Oeste 0 -- -- 68
2019-06-12 02:00:00 9 2 Oeste 9 Sudoeste 0 -- -- 66
2019-06-12 01:00:00 9.6 3 Sur 21 Oeste 0 -- -- 62
2019-06-12 00:00:00 10.6 10 Oeste 31 Noroeste 0 -- -- 57
2019-06-11 23:00:00 11.5 14 Oeste 33 Oeste 0 -- -- 53
2019-06-11 22:00:00 12.4 16 Oeste 44 Oeste 0 -- -- 50
2019-06-11 21:00:00 13.7 17 Oeste 46 Oeste 0 -- -- 45
2019-06-11 20:00:00 15.8 9 Noroeste 39 Noroeste 0 -- -- 40
2019-06-11 19:00:00 15 13 Noroeste 36 Oeste 0 -- -- 47
2019-06-11 18:00:00 12.4 8 Sur 19 Sudoeste 0 -- -- 61
2019-06-11 17:00:00 10.2 5 Sudoeste 19 Noroeste 0.2 -- -- 77
2019-06-11 16:00:00 9.6 11 Oeste 29 Noroeste 0 -- -- 74
2019-06-11 15:00:00 9.6 15 Oeste 27 Noroeste 0 -- -- 74
2019-06-11 14:00:00 9.8 12 Noroeste 33 Noroeste 0 -- -- 70
2019-06-11 13:00:00 9.9 18 Noroeste 39 Noroeste 0 -- -- 67
2019-06-11 12:00:00 9.8 19 Noroeste 37 Noroeste 0 -- -- 66
2019-06-11 11:00:00 10.6 14 Noroeste 35 Noroeste 0 -- -- 65
2019-06-11 10:00:00 10.7 12 Noroeste 27 Noroeste 0 -- -- 64
2019-06-11 09:00:00 10.2 11 Noroeste 24 Oeste 0 -- -- 63
2019-06-11 08:00:00 10.2 12 Noroeste 23 Noroeste 0 -- -- 60
2019-06-11 07:00:00 10.5 10 Noroeste 30 Oeste 0 -- -- 57
2019-06-11 06:00:00 10.9 11 Oeste 24 Oeste 0 -- -- 55
2019-06-11 05:00:00 11.3 10 Oeste 21 Sudoeste 0 -- -- 52
2019-06-11 04:00:00 11.9 2 Noroeste 6 Noroeste 0 -- -- 50
2019-06-11 03:00:00 11.9 3 Sudeste 26 Oeste 0 -- -- 53
2019-06-11 02:00:00 12.4 13 Oeste 26 Oeste 0 -- -- 55
2019-06-11 01:00:00 12.7 12 Oeste 24 Oeste 0 -- -- 54
2019-06-11 00:00:00 13.4 8 Noroeste 21 Sudoeste 0 -- -- 54
2019-06-10 23:00:00 14.4 7 Noroeste 24 Oeste 0 -- -- 51
2019-06-10 22:00:00 15.2 13 Oeste 33 Oeste 0 -- -- 50
2019-06-10 21:00:00 16.9 13 Sudoeste 37 Sudoeste 0 -- -- 47
2019-06-10 20:00:00 19.4 7 Sudeste 27 Nordeste 0 -- -- 42
2019-06-10 19:00:00 20 12 Sudeste 30 Este 0 -- -- 41
2019-06-10 18:00:00 21.2 13 Este 33 Nordeste 0 -- -- 39
2019-06-10 17:00:00 20.8 9 Este 28 Este 0 -- -- 40
2019-06-10 16:00:00 20.2 15 Este 32 Este 0 -- -- 42
2019-06-10 15:00:00 21.3 14 Sudeste 41 Oeste 0 -- -- 42
2019-06-10 14:00:00 21.4 17 Noroeste 29 Noroeste 0 -- -- 41
2019-06-10 13:00:00 20.1 8 Sudeste 26 Oeste 0 -- -- 48
2019-06-10 12:00:00 18 7 Sudoeste 24 Oeste 0 -- -- 54
2019-06-10 11:00:00 16.5 7 Sur 21 Oeste 0 -- -- 58
2019-06-10 10:00:00 13.9 9 Sudoeste 23 Oeste 0 -- -- 68
2019-06-10 09:00:00 12.5 6 Oeste 31 Sudoeste 0 -- -- 74
2019-06-10 08:00:00 11.8 7 Sudoeste 28 Noroeste 0 -- -- 77
2019-06-10 07:00:00 11.4 7 Oeste 35 Noroeste 0 -- -- 77
2019-06-10 06:00:00 11.5 12 Noroeste 39 Noroeste 0 -- -- 77
2019-06-10 05:00:00 12.1 13 Noroeste 30 Norte 0 -- -- 75
2019-06-10 04:00:00 12.5 8 Sur 36 Oeste 0 -- -- 73
2019-06-10 03:00:00 13.5 4 Nordeste 35 Sudoeste 0 -- -- 70
2019-06-10 02:00:00 14.4 20 Oeste 45 Oeste 0 -- -- 68
2019-06-10 01:00:00 15.5 27 Oeste 57 Noroeste 0 -- -- 64
2019-06-10 00:00:00 17.2 27 Oeste 50 Oeste 0 -- -- 59
2019-06-09 23:00:00 21 11 Oeste 40 Oeste 0 -- -- 40
2019-06-09 22:00:00 21.4 3 Sudeste 15 Sudeste 0 -- -- 37
2019-06-09 21:00:00 22.9 6 Sur 17 Este 0 -- -- 35
2019-06-09 20:00:00 24.5 9 Este 20 Nordeste 0 -- -- 32
2019-06-09 19:00:00 26.2 7 Este 19 Norte 0 -- -- 30
2019-06-09 18:00:00 26.4 6 Nordeste 26 Este 0 -- -- 30
2019-06-09 17:00:00 26.9 13 Este 34 Este 0 -- -- 30
2019-06-09 16:00:00 26.3 12 Sudeste 26 Sudeste 0 -- -- 31
2019-06-09 15:00:00 25.3 12 Este 29 Este 0 -- -- 32
2019-06-09 14:00:00 24.2 14 Este 24 Este 0 -- -- 34
2019-06-09 13:00:00 23.9 4 Este 10 Sur 0 -- -- 34
2019-06-09 12:00:00 21.8 4 Nordeste 13 Sur 0 -- -- 34
2019-06-09 11:00:00 20.5 6 Sudeste 14 Sudeste 0 -- -- 35
2019-06-09 10:00:00 18.5 5 Sur 9 Sur 0 -- -- 38
2019-06-09 09:00:00 16.9 0 Calma 6 Sudeste 0 -- -- 42
2019-06-09 08:00:00 16.1 2 Oeste 9 Este 0 -- -- 44
2019-06-09 07:00:00 16.4 4 Sudeste 14 Sudoeste 0 -- -- 37
2019-06-09 06:00:00 16.6 9 Sur 19 Sudoeste 0 -- -- 36
2019-06-09 05:00:00 16.6 6 Sur 20 Sur 0 -- -- 37
2019-06-09 04:00:00 16.5 15 Sur 27 Sudoeste 0 -- -- 38
2019-06-09 03:00:00 16.7 13 Sur 28 Sudoeste 0 -- -- 38
2019-06-09 02:00:00 16.5 10 Sur 22 Sudeste 0 -- -- 40
2019-06-09 01:00:00 16.6 9 Sur 27 Sudoeste 0 -- -- 40
2019-06-09 00:00:00 16.7 15 Sur 34 Sur 0 -- -- 41
2019-06-08 23:00:00 16.8 17 Sur 36 Sudoeste 0 -- -- 42
2019-06-08 22:00:00 17.1 21 Sur 40 Sur 0 -- -- 42
2019-06-08 21:00:00 17.8 18 Sur 35 Sudoeste 0 -- -- 42
2019-06-08 20:00:00 18.9 15 Sudeste 32 Sudeste 0 -- -- 41
2019-06-08 19:00:00 20.2 17 Sudeste 36 Sur 0 -- -- 40
2019-06-08 18:00:00 21.5 17 Sudeste 44 Este 0 -- -- 38
2019-06-08 17:00:00 21.9 21 Este 50 Sudeste 0 -- -- 39
2019-06-08 16:00:00 21.5 21 Sudeste 44 Sudeste 0 -- -- 40
2019-06-08 15:00:00 22.4 18 Sudeste 46 Este 0 -- -- 38
2019-06-08 14:00:00 21.8 23 Este 40 Este 0 -- -- 40
2019-06-08 13:00:00 21.3 27 Este 40 Este 0 -- -- 42
2019-06-08 12:00:00 20.2 19 Este 36 Este 0 -- -- 45
2019-06-08 11:00:00 19 13 Sudeste 30 Este 0 -- -- 50
2019-06-08 10:00:00 17 10 Sudeste 25 Este 0 -- -- 57
2019-06-08 09:00:00 14.8 2 Sur 6 Sudeste 0 -- -- 57
2019-06-08 08:00:00 11.5 0 Calma 8 Nordeste 0 -- -- 51
2019-06-08 07:00:00 10.7 0 Calma 10 Oeste 0 -- -- 49
2019-06-08 06:00:00 9.9 4 Sudoeste 10 Nordeste 0 -- -- 51
2019-06-08 05:00:00 10.8 0 Calma 14 Norte 0 -- -- 47
2019-06-08 04:00:00 11.6 5 Este 8 Este 0 -- -- 45
2019-06-08 03:00:00 12.6 3 Sudeste 5 Sudeste 0 -- -- 42
2019-06-08 02:00:00 13.6 2 Este 6 Este 0 -- -- 39
2019-06-08 01:00:00 14.5 3 Sur 6 Este 0 -- -- 38
2019-06-08 00:00:00 15.9 0 Calma 5 Oeste 0 -- -- 33
2019-06-07 23:00:00 16.7 4 Sudoeste 9 Este 0 -- -- 32
2019-06-07 22:00:00 17.5 6 Este 26 Este 0 -- -- 31
2019-06-07 21:00:00 18.6 9 Sudeste 36 Sudeste 0 -- -- 28
2019-06-07 20:00:00 19.9 14 Este 47 Nordeste 0 -- -- 26
2019-06-07 19:00:00 21.1 22 Este 40 Este 0 -- -- 26
2019-06-07 18:00:00 22 29 Este 45 Este 0 -- -- 26
2019-06-07 17:00:00 23.2 14 Noroeste 28 Oeste 0 -- -- 27
2019-06-07 16:00:00 22.2 12 Sur 42 Norte 0 -- -- 29
2019-06-07 15:00:00 21.4 12 Sudoeste 25 Oeste 0 -- -- 36
2019-06-07 14:00:00 19.2 10 Noroeste 29 Este 0 -- -- 45
2019-06-07 13:00:00 17.9 12 Este 33 Este 0 -- -- 49
2019-06-07 12:00:00 17.5 12 Este 34 Oeste 0 -- -- 51
2019-06-07 11:00:00 16 18 Noroeste 32 Noroeste 0 -- -- 54
2019-06-07 10:00:00 15.7 21 Noroeste 43 Noroeste 0 -- -- 58
2019-06-07 09:00:00 16.7 2 Sur 11 Sur 0 -- -- 61
2019-06-07 08:00:00 14.1 5 Sur 18 Sudoeste 0 -- -- 73
2019-06-07 07:00:00 12.7 6 Sudoeste 10 Sudeste 0 -- -- 80
2019-06-07 06:00:00 13.1 3 Este 12 Este 0 -- -- 79
2019-06-07 05:00:00 13.7 6 Este 13 Sudeste 0 -- -- 76
2019-06-07 04:00:00 14.2 4 Sudeste 18 Sudoeste 0 -- -- 72
2019-06-07 03:00:00 14.2 7 Sur 23 Sur 0 -- -- 72
2019-06-07 02:00:00 14.8 13 Sur 27 Sudoeste 0 -- -- 69
2019-06-07 01:00:00 15 14 Sur 33 Sudoeste 0 -- -- 68
2019-06-07 00:00:00 15.3 18 Sur 38 Sudoeste 0 -- -- 67
2019-06-06 23:00:00 15.7 19 Sur 42 Sur 0 -- -- 61
2019-06-06 22:00:00 16.8 26 Sur 44 Sur 0 -- -- 50
2019-06-06 21:00:00 18.2 19 Sudeste 49 Sudoeste 0 -- -- 41
2019-06-06 20:00:00 20.2 23 Sur 45 Sudoeste 0 -- -- 41
2019-06-06 19:00:00 20.8 22 Sudeste 48 Sur 0 -- -- 40
2019-06-06 18:00:00 21.2 21 Sur 54 Sudeste 0 -- -- 39
2019-06-06 17:00:00 21.6 23 Este 59 Sudeste 0 -- -- 40
2019-06-06 16:00:00 21 19 Sudeste 54 Este 0 -- -- 43
2019-06-06 15:00:00 21.2 24 Este 50 Sudeste 0 -- -- 46
2019-06-06 14:00:00 21 19 Sudeste 40 Sudeste 0 -- -- 43
2019-06-06 13:00:00 21.2 17 Este 39 Este 0 -- -- 41
2019-06-06 12:00:00 21.2 18 Este 33 Este 0 -- -- 36
2019-06-06 11:00:00 19.5 7 Sur 19 Sudeste 0 -- -- 37
2019-06-06 10:00:00 16.3 3 Sur 8 Este 0 -- -- 52
2019-06-06 09:00:00 12.6 3 Sudeste 9 Este 0 -- -- 64
2019-06-06 08:00:00 9.4 3 Sudeste 6 Este 0 -- -- 73
2019-06-06 07:00:00 8.1 0 Calma 5 Sudeste 0 -- -- 78
2019-06-06 06:00:00 9 3 Este 4 Este 0 -- -- 76
2019-06-06 05:00:00 9.4 0 Calma 6 Nordeste 0 -- -- 74
2019-06-06 04:00:00 9.9 0 Calma 4 Este 0 -- -- 71
2019-06-06 03:00:00 10.6 2 Este 6 Sudoeste 0 -- -- 70
2019-06-06 02:00:00 11.2 3 Sudoeste 10 Noroeste 0 -- -- 67
2019-06-06 01:00:00 11.9 2 Este 18 Oeste 0 -- -- 65
2019-06-06 00:00:00 12.8 13 Oeste 20 Oeste 0 -- -- 62
2019-06-05 23:00:00 13.2 3 Norte 19 Noroeste 0 -- -- 59
2019-06-05 22:00:00 14.2 14 Noroeste 40 Oeste 0 -- -- 54
2019-06-05 21:00:00 15.4 9 Sudoeste 37 Oeste 0 -- -- 50
2019-06-05 20:00:00 17.5 21 Noroeste 39 Noroeste 0 -- -- 44
2019-06-05 19:00:00 18.2 21 Noroeste 41 Noroeste 0 -- -- 40
2019-06-05 18:00:00 17.9 17 Noroeste 41 Noroeste 0 -- -- 42
2019-06-05 17:00:00 16.7 22 Oeste 52 Oeste 0 -- -- 45
2019-06-05 16:00:00 16.3 23 Oeste 53 Oeste 0 -- -- 50
2019-06-05 15:00:00 16.6 21 Oeste 70 Oeste 0 -- -- 48
2019-06-05 14:00:00 13.8 38 Oeste 84 Noroeste 0 -- -- 54
2019-06-05 13:00:00 16.6 14 Norte 33 Noroeste 0 -- -- 59
2019-06-05 12:00:00 14.5 15 Oeste 42 Noroeste 0 -- -- 70
2019-06-05 11:00:00 17.9 12 Este 31 Este 0 -- -- 60
2019-06-05 10:00:00 16.6 7 Este 15 Este 0 -- -- 65
2019-06-05 09:00:00 15.3 6 Este 15 Nordeste 0 -- -- 69
2019-06-05 08:00:00 14.1 3 Oeste 17 Noroeste 0 -- -- 73
2019-06-05 07:00:00 13.1 6 Norte 11 Norte 0 -- -- 80
2019-06-05 06:00:00 13.6 5 Noroeste 11 Norte 0 -- -- 78
2019-06-05 05:00:00 14.3 8 Norte 17 Nordeste 0 -- -- 76
2019-06-05 04:00:00 16.1 4 Norte 11 Noroeste 0 -- -- 67
2019-06-05 03:00:00 17.3 5 Noroeste 19 Noroeste 0 -- -- 62
2019-06-05 02:00:00 18.8 10 Noroeste 27 Norte 0 -- -- 56
2019-06-05 01:00:00 22.2 2 Nordeste 24 Sudoeste 0 -- -- 22
2019-06-05 00:00:00 23.5 14 Sudoeste 25 Oeste 0 -- -- 21
2019-06-04 23:00:00 23.1 10 Sudeste 30 Sudoeste 0 -- -- 30
2019-06-04 22:00:00 22.7 17 Sur 30 Sudoeste 0 -- -- 38
2019-06-04 21:00:00 23.4 14 Sur 36 Sudoeste 0 -- -- 45
2019-06-04 20:00:00 24.7 15 Sudeste 41 Este 0 -- -- 44
2019-06-04 19:00:00 26.9 14 Sudeste 46 Este 0 -- -- 41
2019-06-04 18:00:00 29 19 Sudeste 40 Sudeste 0 -- -- 36
2019-06-04 17:00:00 31.2 20 Sur 38 Sudoeste 0 -- -- 30
2019-06-04 16:00:00 30.1 8 Oeste 26 Nordeste 0 -- -- 28
2019-06-04 15:00:00 29.8 14 Nordeste 35 Este 0 -- -- 30
2019-06-04 14:00:00 31.5 17 Este 33 Este 0 -- -- 26
2019-06-04 13:00:00 30.8 11 Nordeste 26 Este 0 -- -- 26
2019-06-04 12:00:00 29.3 8 Noroeste 45 Oeste 0 -- -- 28
2019-06-04 11:00:00 27.6 6 Oeste 12 Oeste 0 -- -- 27
2019-06-04 10:00:00 25.4 4 Sudeste 9 Sur 0 -- -- 33
2019-06-04 09:00:00 22.8 0 Calma 11 Este 0 -- -- 36
2019-06-04 08:00:00 20.8 5 Este 11 Este 0 -- -- 39
2019-06-04 07:00:00 19.6 5 Este 14 Sudoeste 0 -- -- 41
2019-06-04 06:00:00 19.3 6 Este 9 Este 0 -- -- 43
2019-06-04 05:00:00 20.1 3 Sudeste 16 Sudeste 0 -- -- 42
2019-06-04 04:00:00 20.5 6 Sur 14 Sudeste 0 -- -- 41
2019-06-04 03:00:00 20.1 7 Sudeste 15 Sudeste 0 -- -- 44
2019-06-04 02:00:00 20 7 Sur 13 Sur 0 -- -- 43
2019-06-04 01:00:00 20.6 9 Sur 20 Sur 0 -- -- 42
2019-06-04 00:00:00 20.2 9 Sur 14 Sudoeste 0 -- -- 43
2019-06-03 23:00:00 21 9 Sur 16 Sur 0 -- -- 43
2019-06-03 22:00:00 22.6 10 Sur 19 Sur 0 -- -- 41
2019-06-03 21:00:00 24.5 10 Sudeste 21 Sur 0 -- -- 37
2019-06-03 20:00:00 26.2 8 Sur 18 Sudeste 0 -- -- 35
2019-06-03 19:00:00 26.5 12 Sudeste 24 Sur 0 -- -- 35
2019-06-03 18:00:00 27.5 12 Sur 26 Sur 0 -- -- 38
2019-06-03 17:00:00 26.3 7 Sur 26 Sudoeste 0 -- -- 39
2019-06-03 16:00:00 25.1 27 Sudoeste 40 Sudoeste 0 -- -- 41
2019-06-03 15:00:00 29 13 Este 33 Este 0 -- -- 26
2019-06-03 14:00:00 29.1 11 Nordeste 32 Nordeste 0 -- -- 28
2019-06-03 13:00:00 29.1 10 Nordeste 27 Nordeste 0 -- -- 30
2019-06-03 12:00:00 29.1 9 Nordeste 24 Este 0 -- -- 28
2019-06-03 11:00:00 27.5 3 Sur 10 Sudeste 0 -- -- 30
2019-06-03 10:00:00 24 3 Sur 10 Sur 0 -- -- 34
2019-06-03 09:00:00 21.7 2 Sur 8 Sur 0 -- -- 36
2019-06-03 08:00:00 19.1 4 Este 12 Este 0 -- -- 42
2019-06-03 07:00:00 17.6 3 Sudeste 7 Este 0 -- -- 44
2019-06-03 06:00:00 17.8 3 Este 9 Sudeste 0 -- -- 44
2019-06-03 05:00:00 18.7 5 Sudeste 12 Sudoeste 0 -- -- 43
2019-06-03 04:00:00 18.7 6 Sudoeste 21 Noroeste 0 -- -- 44
2019-06-03 03:00:00 19.9 12 Norte 22 Noroeste 0 -- -- 41
2019-06-03 02:00:00 19.6 4 Sudeste 9 Sudeste 0 -- -- 43
2019-06-03 01:00:00 20.1 4 Sudeste 12 Sur 0 -- -- 42
2019-06-03 00:00:00 21.5 7 Sur 13 Sur 0 -- -- 38
2019-06-02 23:00:00 22.3 7 Sudeste 10 Sudeste 0 -- -- 36
2019-06-02 22:00:00 23.2 5 Sudeste 14 Sur 0 -- -- 33
2019-06-02 21:00:00 25.1 6 Sudeste 20 Sudeste 0 -- -- 30
2019-06-02 20:00:00 27.1 11 Sudeste 24 Sur 0 -- -- 27
2019-06-02 19:00:00 28.4 13 Sudeste 31 Este 0 -- -- 27
2019-06-02 18:00:00 30 12 Sudeste 30 Este 0 -- -- 28
2019-06-02 17:00:00 31.3 8 Sudeste 23 Este 0 -- -- 28
2019-06-02 16:00:00 31.3 10 Nordeste 37 Este 0 -- -- 25
2019-06-02 15:00:00 30.7 8 Sudoeste 30 Este 0 -- -- 27
2019-06-02 14:00:00 29.9 5 Nordeste 22 Este 0 -- -- 27
2019-06-02 13:00:00 29.2 8 Nordeste 19 Este 0 -- -- 29
2019-06-02 12:00:00 27.6 9 Este 18 Este 0 -- -- 31
2019-06-02 11:00:00 25.6 8 Este 14 Este 0 -- -- 35
2019-06-02 10:00:00 22.5 2 Oeste 10 Este 0 -- -- 41
2019-06-02 09:00:00 20.5 4 Nordeste 9 Este 0 -- -- 46
2019-06-02 08:00:00 17.3 6 Este 10 Este 0 -- -- 51
2019-06-02 07:00:00 15.7 5 Sudeste 13 Este 0 -- -- 56
2019-06-02 06:00:00 15.7 6 Este 11 Sudeste 0 -- -- 56
2019-06-02 05:00:00 16.1 5 Este 9 Sur 0 -- -- 56
2019-06-02 04:00:00 16.5 5 Sudeste 10 Sudeste 0 -- -- 54
2019-06-02 03:00:00 17 3 Sudoeste 12 Sur 0 -- -- 50
2019-06-02 02:00:00 17.7 6 Sudoeste 13 Sudoeste 0 -- -- 49
2019-06-02 01:00:00 17.9 0 Calma 7 Sur 0 -- -- 49
2019-06-02 00:00:00 18.7 6 Sur 15 Sur 0 -- -- 46
2019-06-01 23:00:00 19.9 9 Sur 14 Sudoeste 0 -- -- 43
2019-06-01 22:00:00 20.6 9 Este 19 Este 0 -- -- 41
2019-06-01 21:00:00 22.5 10 Este 28 Este 0 -- -- 39
2019-06-01 20:00:00 24.9 11 Este 26 Este 0 -- -- 36
2019-06-01 19:00:00 26.6 12 Este 36 Este 0 -- -- 34
2019-06-01 18:00:00 28.5 11 Sudeste 31 Nordeste 0 -- -- 32
2019-06-01 17:00:00 29.1 18 Este 43 Este 0 -- -- 32
2019-06-01 16:00:00 29.4 15 Nordeste 32 Nordeste 0 -- -- 28
2019-06-01 15:00:00 29 12 Este 29 Este 0 -- -- 28
2019-06-01 14:00:00 28.2 6 Sur 27 Este 0 -- -- 27
2019-06-01 13:00:00 27.5 7 Sudoeste 18 Sur 0 -- -- 27
2019-06-01 12:00:00 26.2 4 Este 15 Este 0 -- -- 32
2019-06-01 11:00:00 24.2 8 Este 14 Este 0 -- -- 38
2019-06-01 10:00:00 21.5 3 Este 8 Sudeste 0 -- -- 47
2019-06-01 09:00:00 18.4 5 Este 9 Este 0 -- -- 55
2019-06-01 08:00:00 15.4 7 Este 9 Este 0 -- -- 62
2019-06-01 07:00:00 14.8 4 Este 9 Este 0 -- -- 64
2019-06-01 06:00:00 14.4 3 Sudeste 11 Este 0 -- -- 67
2019-06-01 05:00:00 14.9 5 Sudeste 9 Sudeste 0 -- -- 66
2019-06-01 04:00:00 15.3 5 Sudeste 9 Sur 0 -- -- 66
2019-06-01 03:00:00 15.7 3 Sudeste 12 Sur 0 -- -- 65
2019-06-01 02:00:00 16 2 Sur 9 Sur 0 -- -- 64
2019-06-01 01:00:00 17.1 6 Sur 9 Sudoeste 0 -- -- 60
2019-06-01 00:00:00 17.9 6 Sur 9 Sudoeste 0 -- -- 57
2019-05-31 23:00:00 18.5 6 Sur 11 Sudeste 0 -- -- 55
2019-05-31 22:00:00 19.7 8 Este 13 Sudeste 0 -- -- 52
2019-05-31 21:00:00 21.9 7 Sudeste 17 Sudeste 0 -- -- 46
2019-05-31 20:00:00 24.9 8 Sudeste 28 Este 0 -- -- 39
2019-05-31 19:00:00 26.5 20 Este 30 Este 0 -- -- 36
2019-05-31 18:00:00 27.1 11 Sudeste 32 Este 0 -- -- 30
2019-05-31 17:00:00 27.2 15 Este 32 Nordeste 0 -- -- 30
2019-05-31 16:00:00 27.5 17 Este 34 Este 0 -- -- 29
2019-05-31 15:00:00 27.5 6 Sudeste 21 Este 0 -- -- 29
2019-05-31 14:00:00 26.2 14 Este 24 Este 0 -- -- 32
2019-05-31 13:00:00 24.7 6 Este 16 Este 0 -- -- 37
2019-05-31 12:00:00 23 6 Este 17 Nordeste 0 -- -- 39
2019-05-31 11:00:00 21.1 7 Este 15 Este 0 -- -- 45
2019-05-31 10:00:00 19.5 4 Este 10 Este 0 -- -- 46
2019-05-31 09:00:00 17.1 3 Este 8 Este 0 -- -- 50
2019-05-31 08:00:00 13.7 5 Nordeste 8 Nordeste 0 -- -- 56
2019-05-31 07:00:00 12.2 6 Este 8 Este 0 -- -- 61
2019-05-31 06:00:00 12.9 8 Este 9 Este 0 -- -- 59
2019-05-31 05:00:00 13.8 6 Este 9 Este 0 -- -- 57
2019-05-31 04:00:00 14.6 7 Este 11 Nordeste 0 -- -- 54
2019-05-31 03:00:00 15.5 6 Este 8 Este 0 -- -- 51
2019-05-31 02:00:00 15.9 4 Este 9 Este 0 -- -- 52
2019-05-31 01:00:00 16.9 6 Este 8 Este 0 -- -- 51
2019-05-31 00:00:00 18.2 2 Sudoeste 8 Noroeste 0 -- -- 48
2019-05-30 23:00:00 20.1 5 Noroeste 6 Oeste 0 -- -- 40
2019-05-30 22:00:00 21.1 0 Calma 9 Este 0 -- -- 37
2019-05-30 21:00:00 22.2 5 Este 25 Este 0 -- -- 35
2019-05-30 20:00:00 23.5 17 Este 31 Este 0 -- -- 33
2019-05-30 19:00:00 24.2 16 Este 42 Este 0 -- -- 33
2019-05-30 18:00:00 24.5 23 Este 45 Este 0 -- -- 33
2019-05-30 17:00:00 24.8 18 Este 38 Este 0 -- -- 33
2019-05-30 16:00:00 25.1 9 Nordeste 26 Este 0 -- -- 32
2019-05-30 15:00:00 24.6 10 Este 24 Este 0 -- -- 32
2019-05-30 14:00:00 22.8 12 Norte 26 Este 0 -- -- 35
2019-05-30 13:00:00 21.5 12 Oeste 20 Oeste 0 -- -- 36
2019-05-30 12:00:00 20.4 8 Norte 21 Oeste 0 -- -- 39
2019-05-30 11:00:00 17.4 9 Oeste 27 Oeste 0 -- -- 46
2019-05-30 10:00:00 15.7 10 Noroeste 32 Oeste 0 -- -- 50
2019-05-30 09:00:00 13.9 5 Oeste 17 Oeste 0 -- -- 58
2019-05-30 08:00:00 11.6 4 Este 14 Noroeste 0 -- -- 64
2019-05-30 07:00:00 10.8 4 Este 14 Este 0 -- -- 64
2019-05-30 06:00:00 11.1 12 Este 38 Oeste 0 -- -- 64
2019-05-30 05:00:00 12 6 Oeste 26 Oeste 0 -- -- 60
2019-05-30 04:00:00 11.9 7 Oeste 22 Sur 0 -- -- 62
2019-05-30 03:00:00 12 7 Sur 24 Oeste 0 -- -- 63
2019-05-30 02:00:00 12.1 6 Este 28 Oeste 0 -- -- 64
2019-05-30 01:00:00 12.8 4 Sudeste 24 Noroeste 0 -- -- 62
2019-05-30 00:00:00 13.5 5 Noroeste 23 Noroeste 0 -- -- 60
2019-05-29 23:00:00 14.2 9 Noroeste 28 Noroeste 0 -- -- 56
2019-05-29 22:00:00 15 6 Noroeste 17 Norte 0 -- -- 53
2019-05-29 21:00:00 16 13 Noroeste 42 Oeste 0 -- -- 50
2019-05-29 20:00:00 18.2 19 Noroeste 37 Noroeste 0 -- -- 43
2019-05-29 19:00:00 18.8 16 Noroeste 52 Noroeste 0 -- -- 39
2019-05-29 18:00:00 18.8 24 Noroeste 56 Norte 0 -- -- 37
2019-05-29 17:00:00 18.5 18 Oeste 51 Noroeste 0 -- -- 36
2019-05-29 16:00:00 18.7 21 Noroeste 45 Noroeste 0 -- -- 38
2019-05-29 15:00:00 17.5 22 Noroeste 51 Oeste 0 -- -- 41
2019-05-29 14:00:00 16.4 18 Noroeste 62 Oeste 0 -- -- 46
2019-05-29 13:00:00 14.9 19 Noroeste 47 Oeste 0 -- -- 50
2019-05-29 12:00:00 13.9 25 Oeste 64 Oeste 0 -- -- 50
2019-05-29 11:00:00 12.8 22 Noroeste 62 Oeste 0 -- -- 53
2019-05-29 10:00:00 11.9 20 Noroeste 48 Oeste 0 -- -- 60
2019-05-29 09:00:00 10.4 18 Oeste 41 Oeste 0 -- -- 63
2019-05-29 08:00:00 9.5 22 Oeste 46 Oeste 0 -- -- 63
2019-05-29 07:00:00 8.5 22 Oeste 43 Noroeste 0 -- -- 69
2019-05-29 06:00:00 8.7 18 Oeste 49 Noroeste 0 -- -- 68
2019-05-29 05:00:00 8.9 23 Oeste 47 Noroeste 0 -- -- 66
2019-05-29 04:00:00 9.1 19 Oeste 43 Noroeste 0 -- -- 65
2019-05-29 03:00:00 9.5 10 Oeste 41 Oeste 0 -- -- 60
2019-05-29 02:00:00 9.8 17 Oeste 54 Oeste 0 -- -- 61
2019-05-29 01:00:00 10.2 22 Oeste 56 Sudoeste 0 -- -- 62
2019-05-29 00:00:00 10.8 20 Noroeste 60 Oeste 0 -- -- 58
2019-05-28 23:00:00 11.3 33 Oeste 80 Oeste 0 -- -- 53
2019-05-28 22:00:00 12 33 Oeste 70 Noroeste 0 -- -- 53
2019-05-28 21:00:00 13.3 26 Oeste 58 Noroeste 0 -- -- 54
2019-05-28 20:00:00 15.2 26 Noroeste 60 Oeste 0 -- -- 51
2019-05-28 19:00:00 16.9 25 Noroeste 72 Norte 0 -- -- 43
2019-05-28 18:00:00 17.8 19 Oeste 53 Noroeste 0 -- -- 40
2019-05-28 17:00:00 17.8 25 Noroeste 58 Oeste 0 -- -- 41
2019-05-28 16:00:00 18 24 Noroeste 53 Oeste 0 -- -- 42
2019-05-28 15:00:00 17.6 24 Oeste 55 Oeste 0 -- -- 41
2019-05-28 14:00:00 16.7 28 Oeste 62 Oeste 0 -- -- 42
2019-05-28 13:00:00 15.9 22 Oeste 54 Noroeste 0 -- -- 43
2019-05-28 12:00:00 14.1 17 Noroeste 60 Oeste 0 -- -- 48
2019-05-28 11:00:00 13.4 17 Noroeste 48 Noroeste 0 -- -- 50
2019-05-28 10:00:00 11.5 22 Oeste 53 Noroeste 0 -- -- 56
2019-05-28 09:00:00 10.6 16 Sudoeste 50 Sudoeste 0 -- -- 60
2019-05-28 08:00:00 9.4 15 Oeste 53 Sur 0 -- -- 67
2019-05-28 07:00:00 8.9 10 Oeste 34 Oeste 0 -- -- 70
2019-05-28 06:00:00 9.2 10 Oeste 26 Oeste 0 -- -- 70
2019-05-28 05:00:00 10 12 Oeste 37 Noroeste 0 -- -- 66
2019-05-28 04:00:00 10.4 6 Norte 26 Norte 0 -- -- 67
2019-05-28 03:00:00 10.6 4 Sur 23 Sur 0 -- -- 68
2019-05-28 02:00:00 11.5 11 Oeste 27 Noroeste 0 -- -- 69
2019-05-28 01:00:00 12.8 8 Noroeste 36 Noroeste 0 -- -- 69
2019-05-28 00:00:00 13.9 20 Oeste 49 Oeste 0 -- -- 68
2019-05-27 23:00:00 15.5 21 Oeste 51 Oeste 0 -- -- 63
2019-05-27 22:00:00 16.5 23 Oeste 48 Noroeste 0 -- -- 60
2019-05-27 21:00:00 17.7 20 Noroeste 44 Noroeste 0 -- -- 57
2019-05-27 20:00:00 19.6 19 Oeste 43 Oeste 0 -- -- 51
2019-05-27 19:00:00 21.6 22 Noroeste 44 Noroeste 0 -- -- 44
2019-05-27 18:00:00 22.9 18 Noroeste 48 Noroeste 0 -- -- 42
2019-05-27 17:00:00 22.2 18 Noroeste 41 Noroeste 0 -- -- 43
2019-05-27 16:00:00 21.8 13 Noroeste 35 Noroeste 0 -- -- 45
2019-05-27 15:00:00 20.3 17 Oeste 46 Oeste 0 -- -- 47
2019-05-27 14:00:00 20.2 15 Oeste 54 Oeste 0 -- -- 46
2019-05-27 13:00:00 18.4 15 Noroeste 37 Noroeste 0 -- -- 50
2019-05-27 12:00:00 16.3 13 Noroeste 29 Noroeste 0 -- -- 58
2019-05-27 11:00:00 14.1 14 Noroeste 33 Noroeste 0 -- -- 65
2019-05-27 10:00:00 11.8 15 Oeste 33 Noroeste 0 -- -- 74
2019-05-27 09:00:00 11 14 Noroeste 30 Noroeste 0 -- -- 77
2019-05-27 08:00:00 9.7 3 Oeste 14 Oeste 0 -- -- 82
2019-05-27 07:00:00 9.6 8 Noroeste 13 Oeste 0 -- -- 84
2019-05-27 06:00:00 9.8 2 Sur 21 Oeste 0 -- -- 81
2019-05-27 05:00:00 10.5 5 Oeste 12 Noroeste 0 -- -- 78
2019-05-27 04:00:00 11 0 Calma 10 Oeste 0 -- -- 76
2019-05-27 03:00:00 11.2 5 Oeste 14 Oeste 0 -- -- 76
2019-05-27 02:00:00 11.6 8 Oeste 27 Sur 0 -- -- 75
2019-05-27 01:00:00 11.8 3 Sudoeste 19 Noroeste 0 -- -- 73
2019-05-27 00:00:00 12.5 5 Sudeste 28 Noroeste 0 -- -- 71
2019-05-26 23:00:00 13.4 8 Oeste 39 Oeste 0 -- -- 67
2019-05-26 22:00:00 14.5 14 Oeste 36 Oeste 0 -- -- 63
2019-05-26 21:00:00 15.8 12 Noroeste 41 Noroeste 0 -- -- 56
2019-05-26 20:00:00 18 17 Oeste 39 Noroeste 0 -- -- 51
2019-05-26 19:00:00 18.6 21 Oeste 41 Oeste 0 -- -- 48
2019-05-26 18:00:00 18.6 22 Oeste 41 Noroeste 0 -- -- 48
2019-05-26 17:00:00 18.6 22 Oeste 44 Noroeste 0 -- -- 47
2019-05-26 16:00:00 18.8 18 Oeste 48 Oeste 0 -- -- 48
2019-05-26 15:00:00 17.5 22 Oeste 52 Oeste 0 -- -- 51
2019-05-26 14:00:00 16.9 17 Oeste 37 Oeste 0 -- -- 53
2019-05-26 13:00:00 15.8 19 Oeste 37 Noroeste 0 -- -- 54
2019-05-26 12:00:00 14.7 17 Noroeste 35 Oeste 0 -- -- 59
2019-05-26 11:00:00 13.6 14 Oeste 35 Oeste 0 -- -- 62
2019-05-26 10:00:00 11.8 17 Oeste 42 Oeste 0 -- -- 66
2019-05-26 09:00:00 10.5 21 Oeste 44 Noroeste 0 -- -- 69
2019-05-26 08:00:00 9.4 23 Oeste 42 Oeste 0 -- -- 72
2019-05-26 07:00:00 8.9 26 Oeste 42 Oeste 0 -- -- 74
2019-05-26 06:00:00 9 21 Oeste 38 Oeste 0 -- -- 74
2019-05-26 05:00:00 9.3 22 Oeste 49 Oeste 0 -- -- 74
2019-05-26 04:00:00 9.7 10 Sur 51 Noroeste 0 -- -- 74
2019-05-26 03:00:00 10.1 15 Oeste 38 Sudoeste 0 -- -- 74
2019-05-26 02:00:00 10.5 9 Oeste 22 Noroeste 0 -- -- 74
2019-05-26 01:00:00 10.9 6 Nordeste 33 Noroeste 0 -- -- 74
2019-05-26 00:00:00 11.6 6 Norte 21 Oeste 0 -- -- 73
2019-05-25 23:00:00 12.3 11 Noroeste 28 Noroeste 0 -- -- 70
2019-05-25 22:00:00 13.5 9 Este 41 Norte 0 -- -- 66
2019-05-25 21:00:00 15 25 Oeste 44 Noroeste 0 -- -- 61
2019-05-25 20:00:00 17.2 18 Oeste 46 Oeste 0 -- -- 54
2019-05-25 19:00:00 18.6 19 Oeste 44 Norte 0 -- -- 51
2019-05-25 18:00:00 19.2 17 Noroeste 40 Noroeste 0 -- -- 50
2019-05-25 17:00:00 18.4 17 Noroeste 39 Oeste 0 -- -- 53
2019-05-25 16:00:00 17.9 21 Noroeste 42 Sudoeste 0 -- -- 56
2019-05-25 15:00:00 16.7 22 Oeste 40 Oeste 0 -- -- 59
2019-05-25 14:00:00 14.8 18 Oeste 42 Oeste 0 -- -- 64
2019-05-25 13:00:00 14.3 13 Oeste 35 Oeste 0 -- -- 67
2019-05-25 12:00:00 13.2 12 Oeste 33 Norte 0 -- -- 71
2019-05-25 11:00:00 12.2 8 Oeste 35 Norte 0 -- -- 74
2019-05-25 10:00:00 11.1 17 Noroeste 32 Noroeste 0 -- -- 78
2019-05-25 09:00:00 10.4 6 Noroeste 23 Sudeste 0 -- -- 79
2019-05-25 08:00:00 10 10 Sudoeste 31 Oeste 0 -- -- 80
2019-05-25 07:00:00 9.9 7 Oeste 27 Oeste 0 -- -- 81
2019-05-25 06:00:00 9.9 6 Oeste 32 Oeste 0 -- -- 82
2019-05-25 05:00:00 9.9 13 Oeste 36 Oeste 0 -- -- 82
2019-05-25 04:00:00 10 10 Oeste 36 Oeste 0 -- -- 84
2019-05-25 03:00:00 10.1 9 Oeste 32 Oeste 0.2 -- -- 85
2019-05-25 02:00:00 10.4 20 Oeste 41 Oeste 0.4 -- -- 86
2019-05-25 01:00:00 10.4 15 Noroeste 36 Oeste 1 -- -- 86
2019-05-25 00:00:00 10.7 15 Oeste 31 Oeste 0.6 -- -- 86
2019-05-24 23:00:00 11.4 15 Oeste 39 Oeste 0.2 -- -- 82
2019-05-24 22:00:00 11.6 13 Oeste 32 Noroeste 0.2 -- -- 84
2019-05-24 21:00:00 11.5 17 Noroeste 43 Noroeste 0.6 -- -- 86
2019-05-24 20:00:00 12 16 Noroeste 49 Oeste 0.4 -- -- 84
2019-05-24 19:00:00 13.6 35 Noroeste 60 Noroeste 0 -- -- 70
2019-05-24 18:00:00 14.3 17 Oeste 43 Oeste 0 -- -- 72
2019-05-24 17:00:00 13.7 19 Oeste 40 Oeste 0 -- -- 75
2019-05-24 16:00:00 13.8 12 Oeste 34 Oeste 0 -- -- 76
2019-05-24 15:00:00 12.8 12 Oeste 31 Oeste 0 -- -- 80
2019-05-24 14:00:00 11.7 13 Oeste 29 Oeste 0.4 -- -- 87
2019-05-24 13:00:00 11.3 11 Oeste 29 Noroeste 1.2 -- -- 89
2019-05-24 12:00:00 11 6 Noroeste 26 Noroeste 2.4 -- -- 91
2019-05-24 11:00:00 10.7 10 Oeste 30 Noroeste 2.4 -- -- 90
2019-05-24 10:00:00 10.9 9 Oeste 28 Noroeste 1.2 -- -- 88
2019-05-24 09:00:00 11.3 7 Oeste 28 Norte 0.6 -- -- 88
2019-05-24 08:00:00 12 8 Noroeste 20 Noroeste 0.2 -- -- 88
2019-05-24 07:00:00 12.5 6 Noroeste 23 Oeste 0 -- -- 84
2019-05-24 06:00:00 12.7 10 Oeste 34 Oeste 0 -- -- 85
2019-05-24 05:00:00 13.1 11 Oeste 28 Este 0 -- -- 89
2019-05-24 04:00:00 13.4 7 Noroeste 26 Nordeste 0.6 -- -- 88
2019-05-24 03:00:00 14.6 14 Sudoeste 22 Sudoeste 0 -- -- 77
2019-05-24 02:00:00 15.7 4 Noroeste 15 Oeste 0 -- -- 71
2019-05-24 01:00:00 15.5 2 Oeste 28 Nordeste 0 -- -- 74
2019-05-24 00:00:00 15.5 12 Nordeste 69 Oeste 1.2 -- -- 75
2019-05-23 23:00:00 19.1 24 Oeste 45 Norte 0 -- -- 56
2019-05-23 22:00:00 20.9 5 Este 9 Sudoeste 0 -- -- 56
2019-05-23 21:00:00 22.2 3 Sur 11 Este 0 -- -- 47
2019-05-23 20:00:00 24.5 3 Este 16 Este 0 -- -- 37
2019-05-23 19:00:00 24.8 5 Este 11 Sudeste 0 -- -- 35
2019-05-23 18:00:00 23.9 7 Sudeste 17 Este 0 -- -- 46
2019-05-23 17:00:00 24.8 3 Nordeste 23 Este 0 -- -- 31
2019-05-23 16:00:00 24.6 5 Nordeste 21 Este 0 -- -- 31
2019-05-23 15:00:00 24.9 8 Este 19 Este 0 -- -- 30
2019-05-23 14:00:00 23.7 6 Este 21 Este 0 -- -- 35
2019-05-23 13:00:00 24.8 7 Este 19 Este 0 -- -- 36
2019-05-23 12:00:00 23.4 8 Este 24 Nordeste 0 -- -- 40
2019-05-23 11:00:00 21.9 5 Nordeste 17 Nordeste 0 -- -- 47
2019-05-23 10:00:00 20 4 Este 8 Este 0 -- -- 54
2019-05-23 09:00:00 17.2 2 Este 8 Nordeste 0 -- -- 62
2019-05-23 08:00:00 14.1 5 Este 9 Nordeste 0 -- -- 70
2019-05-23 07:00:00 12.8 6 Este 12 Este 0 -- -- 74
2019-05-23 06:00:00 13.4 4 Este 10 Este 0 -- -- 72
2019-05-23 05:00:00 13.5 6 Este 8 Este 0 -- -- 72
2019-05-23 04:00:00 13.8 4 Este 9 Este 0 -- -- 70
2019-05-23 03:00:00 14.1 5 Este 8 Este 0 -- -- 71
2019-05-23 02:00:00 15.3 3 Oeste 6 Sur 0 -- -- 71
2019-05-23 01:00:00 16.3 0 Calma 8 Este 0 -- -- 68
2019-05-23 00:00:00 16.9 6 Este 11 Este 0 -- -- 66
2019-05-22 23:00:00 18.2 3 Este 8 Sudeste 0 -- -- 60
2019-05-22 22:00:00 19.1 6 Este 16 Nordeste 0 -- -- 57
2019-05-22 21:00:00 20.8 3 Este 19 Este 0 -- -- 36
2019-05-22 20:00:00 21.9 14 Este 33 Este 0 -- -- 34
2019-05-22 19:00:00 22.4 22 Este 37 Este 0 -- -- 33
2019-05-22 18:00:00 23.1 20 Este 39 Este 0 -- -- 33
2019-05-22 17:00:00 23.9 7 Sudeste 32 Este 0 -- -- 32
2019-05-22 16:00:00 23.1 19 Este 38 Este 0 -- -- 32
2019-05-22 15:00:00 22.6 16 Este 29 Este 0 -- -- 33
2019-05-22 14:00:00 21.5 15 Este 37 Sudeste 0 -- -- 34
2019-05-22 13:00:00 21.7 11 Este 24 Este 0 -- -- 33
2019-05-22 12:00:00 20 10 Este 20 Este 0 -- -- 37
2019-05-22 11:00:00 17.9 5 Este 12 Nordeste 0 -- -- 37
2019-05-22 10:00:00 15.3 3 Sudeste 7 Sudoeste 0 -- -- 44
2019-05-22 09:00:00 12.4 2 Este 6 Sudeste 0 -- -- 55
2019-05-22 08:00:00 9.2 4 Este 6 Este 0 -- -- 70
2019-05-22 07:00:00 8.3 4 Este 7 Este 0 -- -- 71
2019-05-22 06:00:00 9.1 6 Este 7 Este 0 -- -- 70
2019-05-22 05:00:00 9.6 6 Este 8 Este 0 -- -- 70
2019-05-22 04:00:00 10.8 2 Este 9 Este 0 -- -- 65
2019-05-22 03:00:00 11.9 4 Nordeste 7 Norte 0 -- -- 64
2019-05-22 02:00:00 12.5 4 Este 7 Este 0 -- -- 62
2019-05-22 01:00:00 13.2 0 Calma 8 Sudeste 0 -- -- 63
2019-05-22 00:00:00 13.9 6 Este 8 Este 0 -- -- 62
2019-05-21 23:00:00 14.7 4 Este 8 Este 0 -- -- 59
2019-05-21 22:00:00 16.1 5 Este 11 Sur 0 -- -- 54
2019-05-21 21:00:00 17.4 4 Sudoeste 10 Sur 0 -- -- 50
2019-05-21 20:00:00 19 6 Sur 15 Sur 0 -- -- 47
2019-05-21 19:00:00 18 9 Sudeste 29 Este 0 -- -- 50
2019-05-21 18:00:00 21.2 10 Sudeste 29 Este 0 -- -- 31
2019-05-21 17:00:00 21.3 19 Este 38 Este 0 -- -- 33
2019-05-21 16:00:00 21.3 14 Este 31 Nordeste 0 -- -- 34
2019-05-21 15:00:00 21 10 Este 30 Este 0 -- -- 37
2019-05-21 14:00:00 20.5 8 Sudeste 31 Este 0 -- -- 37
2019-05-21 13:00:00 19.4 10 Este 24 Este 0 -- -- 39
2019-05-21 12:00:00 17.9 5 Noroeste 18 Noroeste 0 -- -- 41
2019-05-21 11:00:00 16.3 5 Este 15 Nordeste 0 -- -- 48
2019-05-21 10:00:00 14 4 Nordeste 12 Nordeste 0 -- -- 55
2019-05-21 09:00:00 11.6 4 Este 7 Norte 0 -- -- 61
2019-05-21 08:00:00 9.3 0 Calma 5 Este 0 -- -- 68
2019-05-21 07:00:00 8.3 2 Este 6 Nordeste 0 -- -- 70
2019-05-21 06:00:00 8.4 3 Este 7 Este 0 -- -- 69
2019-05-21 05:00:00 9.1 2 Este 5 Este 0 -- -- 67
2019-05-21 04:00:00 10.3 0 Calma 4 Este 0 -- -- 62
2019-05-21 03:00:00 11.6 2 Este 4 Sudeste 0 -- -- 57
2019-05-21 02:00:00 11.6 0 Calma 6 Sur 0 -- -- 57
2019-05-21 01:00:00 13.2 6 Oeste 14 Noroeste 0 -- -- 51
2019-05-21 00:00:00 13.8 4 Nordeste 9 Noroeste 0 -- -- 47